الصفحة الرئيسية
METAR-TAF:

METAR-TAF

مطار :

Tamworth, أستراليا

دائرة عرض: 31-05S, خط طول: 150-50E, ارتفاع: 410 متر

مراقبة الطقس الحالي

تاريخ ووقت الإصدار 23 دقيقة قبل الساعة 16:00UTC
ريح 7 عقدة من الجنوب/الجنوب الشرقي
درجة الحرارة 11°درجة مئوية
الرطوبة 94%
ضغط 1019 hPa
الرؤية 10 كم أو أكثر

METAR: YSTW 061600Z AUTO 16007KT 9999 // NCD 11/10 Q1019

زمن: 02:23 (16:23 UTC)

توقعات

تاريخ ووقت الإصدار 4ساعات و 56 دقيقة قبل الساعة 11:27UTC
التوقعات صالحة من06 الساعة 12 UTC إلى 07 الساعة 06 UTC
ريح 5 عقدة من الشرق/الجنوب الشرقي
الرؤية 10 كم أو أكثر
الغيوم لا تقل 1500 م ولا وجود لمزنة ركامية السحاب الأسود
من 07 الساعة 0300 UTC
ريح 8 عقدة من الشرق/الجنوب الشرقي
الرؤية 10 كم أو أكثر
غيوم متفرقة على ارتفاع 4000 قدم

TAF: YSTW 061127Z 0612/0706 12005KT CAVOK FM070300 12008KT 9999 SCT040

أرصاد الطقس والتوقعات من أكثر من 4000 مطار (تقارير الطقس للمطار METAR والتنبؤ بالطقس بالمطارTAF).

المحطات المتاحة هي النقط الصفراء والحمراء على الخريطة.

حرك المؤشر فوق النقطة لمعرفة اسم المحطة.

ثم انقر لمعرفة أرصاد وتوقعات الطقس.

لتغيير الخارطة: اضغط على الأزرار الخضراء مع رمز الصليب الأسود للتكبير. على الزر الأخضر مع شرطة للتصغير، أو على الأسهم الخضراء للخرائط المجاورة.


METAR-TAF: